sensor_id;sensor_type;location;lat;lon;timestamp;temperature;humidity
44305;DHT22;30019;50.576;8.568;2023-03-13T00:00:34;6.20;99.90
44305;DHT22;30019;50.576;8.568;2023-03-13T00:03:00;6.30;99.90
44305;DHT22;30019;50.576;8.568;2023-03-13T00:05:25;6.30;99.90
44305;DHT22;30019;50.576;8.568;2023-03-13T00:07:51;6.40;99.90
44305;DHT22;30019;50.576;8.568;2023-03-13T00:10:16;6.40;99.90
44305;DHT22;30019;50.576;8.568;2023-03-13T00:12:42;6.30;99.90
44305;DHT22;30019;50.576;8.568;2023-03-13T00:15:08;6.40;99.90
44305;DHT22;30019;50.576;8.568;2023-03-13T00:17:33;6.30;99.90
44305;DHT22;30019;50.576;8.568;2023-03-13T00:19:59;6.30;99.90
44305;DHT22;30019;50.576;8.568;2023-03-13T00:22:25;6.30;99.90
44305;DHT22;30019;50.576;8.568;2023-03-13T00:24:51;6.30;99.90
44305;DHT22;30019;50.576;8.568;2023-03-13T00:27:16;6.30;99.90
44305;DHT22;30019;50.576;8.568;2023-03-13T00:29:42;6.30;99.90
44305;DHT22;30019;50.576;8.568;2023-03-13T00:32:07;6.30;99.90
44305;DHT22;30019;50.576;8.568;2023-03-13T00:34:33;6.30;99.90
44305;DHT22;30019;50.576;8.568;2023-03-13T00:36:58;6.40;99.90
44305;DHT22;30019;50.576;8.568;2023-03-13T00:39:24;6.50;99.90
44305;DHT22;30019;50.576;8.568;2023-03-13T00:41:50;6.50;99.90
44305;DHT22;30019;50.576;8.568;2023-03-13T00:44:15;6.50;99.90
44305;DHT22;30019;50.576;8.568;2023-03-13T00:46:41;6.50;99.90
44305;DHT22;30019;50.576;8.568;2023-03-13T00:49:06;6.50;99.90
44305;DHT22;30019;50.576;8.568;2023-03-13T00:51:32;6.60;99.90
44305;DHT22;30019;50.576;8.568;2023-03-13T00:53:58;6.50;99.90
44305;DHT22;30019;50.576;8.568;2023-03-13T00:56:28;6.60;99.90
44305;DHT22;30019;50.576;8.568;2023-03-13T00:58:54;6.60;99.90
44305;DHT22;30019;50.576;8.568;2023-03-13T01:01:27;6.60;99.90
44305;DHT22;30019;50.576;8.568;2023-03-13T01:03:55;6.60;99.90
44305;DHT22;30019;50.576;8.568;2023-03-13T01:06:23;6.70;99.90
44305;DHT22;30019;50.576;8.568;2023-03-13T01:08:49;6.70;99.90
44305;DHT22;30019;50.576;8.568;2023-03-13T01:11:18;6.70;99.90
44305;DHT22;30019;50.576;8.568;2023-03-13T01:13:45;6.70;99.90
44305;DHT22;30019;50.576;8.568;2023-03-13T01:16:16;6.60;99.90
44305;DHT22;30019;50.576;8.568;2023-03-13T01:18:48;6.60;99.90
44305;DHT22;30019;50.576;8.568;2023-03-13T01:21:15;6.70;99.90
44305;DHT22;30019;50.576;8.568;2023-03-13T01:23:41;6.70;99.90
44305;DHT22;30019;50.576;8.568;2023-03-13T01:26:08;6.80;99.90
44305;DHT22;30019;50.576;8.568;2023-03-13T01:28:34;6.80;99.90
44305;DHT22;30019;50.576;8.568;2023-03-13T01:31:00;6.80;99.90
44305;DHT22;30019;50.576;8.568;2023-03-13T01:33:34;6.80;99.90
44305;DHT22;30019;50.576;8.568;2023-03-13T01:36:01;6.70;99.90
44305;DHT22;30019;50.576;8.568;2023-03-13T01:38:26;6.70;99.90
44305;DHT22;30019;50.576;8.568;2023-03-13T01:40:52;6.70;99.90
44305;DHT22;30019;50.576;8.568;2023-03-13T01:43:22;6.70;99.90
44305;DHT22;30019;50.576;8.568;2023-03-13T01:48:53;6.90;99.90
44305;DHT22;30019;50.576;8.568;2023-03-13T01:51:24;7.40;99.90
44305;DHT22;30019;50.576;8.568;2023-03-13T01:53:59;7.70;99.90
44305;DHT22;30019;50.576;8.568;2023-03-13T01:56:51;7.90;99.90
44305;DHT22;30019;50.576;8.568;2023-03-13T02:00:25;8.10;99.90
44305;DHT22;30019;50.576;8.568;2023-03-13T02:02:33;8.20;99.90
44305;DHT22;30019;50.576;8.568;2023-03-13T02:05:00;8.30;99.90
44305;DHT22;30019;50.576;8.568;2023-03-13T02:07:31;8.40;99.90
44305;DHT22;30019;50.576;8.568;2023-03-13T02:10:00;8.50;99.90
44305;DHT22;30019;50.576;8.568;2023-03-13T02:12:34;8.50;99.90
44305;DHT22;30019;50.576;8.568;2023-03-13T02:15:04;8.60;99.90
44305;DHT22;30019;50.576;8.568;2023-03-13T02:17:33;8.50;99.90
44305;DHT22;30019;50.576;8.568;2023-03-13T02:19:59;8.60;99.90
44305;DHT22;30019;50.576;8.568;2023-03-13T02:27:35;8.50;99.90
44305;DHT22;30019;50.576;8.568;2023-03-13T02:30:03;8.40;99.90
44305;DHT22;30019;50.576;8.568;2023-03-13T02:32:30;8.30;99.90
44305;DHT22;30019;50.576;8.568;2023-03-13T02:35:00;8.30;99.90
44305;DHT22;30019;50.576;8.568;2023-03-13T02:37:28;8.30;99.90
44305;DHT22;30019;50.576;8.568;2023-03-13T02:39:56;8.20;99.90
44305;DHT22;30019;50.576;8.568;2023-03-13T02:42:24;8.20;99.90
44305;DHT22;30019;50.576;8.568;2023-03-13T02:44:50;8.20;99.90
44305;DHT22;30019;50.576;8.568;2023-03-13T02:47:21;8.20;99.90
44305;DHT22;30019;50.576;8.568;2023-03-13T02:49:46;8.10;99.90
44305;DHT22;30019;50.576;8.568;2023-03-13T02:52:33;8.10;99.90
44305;DHT22;30019;50.576;8.568;2023-03-13T02:55:05;8.00;99.90
44305;DHT22;30019;50.576;8.568;2023-03-13T02:57:33;8.00;99.90
44305;DHT22;30019;50.576;8.568;2023-03-13T03:00:00;8.00;99.90
44305;DHT22;30019;50.576;8.568;2023-03-13T03:02:25;8.00;99.90
44305;DHT22;30019;50.576;8.568;2023-03-13T03:04:51;8.10;99.90
44305;DHT22;30019;50.576;8.568;2023-03-13T03:07:17;8.10;99.90
44305;DHT22;30019;50.576;8.568;2023-03-13T03:09:42;8.10;99.90
44305;DHT22;30019;50.576;8.568;2023-03-13T03:12:08;8.10;99.90
44305;DHT22;30019;50.576;8.568;2023-03-13T03:14:34;8.10;99.90
44305;DHT22;30019;50.576;8.568;2023-03-13T03:17:00;8.10;99.90
44305;DHT22;30019;50.576;8.568;2023-03-13T03:19:25;8.10;99.90
44305;DHT22;30019;50.576;8.568;2023-03-13T03:21:51;8.10;99.90
44305;DHT22;30019;50.576;8.568;2023-03-13T03:24:16;8.10;99.90
44305;DHT22;30019;50.576;8.568;2023-03-13T03:26:42;8.10;99.90
44305;DHT22;30019;50.576;8.568;2023-03-13T03:29:07;8.20;99.90
44305;DHT22;30019;50.576;8.568;2023-03-13T03:31:33;8.20;99.90
44305;DHT22;30019;50.576;8.568;2023-03-13T03:33:59;8.30;99.90
44305;DHT22;30019;50.576;8.568;2023-03-13T03:36:24;8.30;99.90
44305;DHT22;30019;50.576;8.568;2023-03-13T03:38:50;8.40;99.90
44305;DHT22;30019;50.576;8.568;2023-03-13T03:41:16;8.40;99.90
44305;DHT22;30019;50.576;8.568;2023-03-13T03:43:43;8.40;99.90
44305;DHT22;30019;50.576;8.568;2023-03-13T03:46:09;8.40;99.90
44305;DHT22;30019;50.576;8.568;2023-03-13T03:48:35;8.50;99.90
44305;DHT22;30019;50.576;8.568;2023-03-13T03:51:01;8.50;99.90
44305;DHT22;30019;50.576;8.568;2023-03-13T03:53:26;8.50;99.90
44305;DHT22;30019;50.576;8.568;2023-03-13T03:55:53;8.50;99.90
44305;DHT22;30019;50.576;8.568;2023-03-13T03:58:19;8.60;99.90
44305;DHT22;30019;50.576;8.568;2023-03-13T04:00:46;8.60;99.90
44305;DHT22;30019;50.576;8.568;2023-03-13T04:03:11;8.60;99.90
44305;DHT22;30019;50.576;8.568;2023-03-13T04:05:37;8.60;99.90
44305;DHT22;30019;50.576;8.568;2023-03-13T04:08:03;8.60;99.90
44305;DHT22;30019;50.576;8.568;2023-03-13T04:10:28;8.60;99.90
44305;DHT22;30019;50.576;8.568;2023-03-13T04:12:54;8.70;99.90
44305;DHT22;30019;50.576;8.568;2023-03-13T04:15:19;8.70;99.90
44305;DHT22;30019;50.576;8.568;2023-03-13T04:17:45;8.60;99.90
44305;DHT22;30019;50.576;8.568;2023-03-13T04:20:11;8.70;99.90
44305;DHT22;30019;50.576;8.568;2023-03-13T04:22:38;8.60;99.90
44305;DHT22;30019;50.576;8.568;2023-03-13T04:25:05;8.70;99.90
44305;DHT22;30019;50.576;8.568;2023-03-13T04:27:32;8.70;99.90
44305;DHT22;30019;50.576;8.568;2023-03-13T04:29:58;8.70;99.90
44305;DHT22;30019;50.576;8.568;2023-03-13T04:32:23;8.70;99.90
44305;DHT22;30019;50.576;8.568;2023-03-13T04:34:49;8.80;99.90
44305;DHT22;30019;50.576;8.568;2023-03-13T04:37:15;8.80;99.90
44305;DHT22;30019;50.576;8.568;2023-03-13T04:39:41;8.80;99.90
44305;DHT22;30019;50.576;8.568;2023-03-13T04:42:07;8.80;99.90
44305;DHT22;30019;50.576;8.568;2023-03-13T04:44:34;8.80;99.90
44305;DHT22;30019;50.576;8.568;2023-03-13T04:46:59;8.80;99.90
44305;DHT22;30019;50.576;8.568;2023-03-13T04:49:25;8.90;99.90
44305;DHT22;30019;50.576;8.568;2023-03-13T04:51:50;8.90;99.90
44305;DHT22;30019;50.576;8.568;2023-03-13T04:54:16;8.90;99.90
44305;DHT22;30019;50.576;8.568;2023-03-13T04:56:41;9.00;99.90
44305;DHT22;30019;50.576;8.568;2023-03-13T04:59:08;9.00;99.90
44305;DHT22;30019;50.576;8.568;2023-03-13T05:01:34;8.90;99.90
44305;DHT22;30019;50.576;8.568;2023-03-13T05:03:59;8.90;99.90
44305;DHT22;30019;50.576;8.568;2023-03-13T05:06:25;8.90;99.90
44305;DHT22;30019;50.576;8.568;2023-03-13T05:08:50;8.90;99.90
44305;DHT22;30019;50.576;8.568;2023-03-13T05:11:16;8.90;99.90
44305;DHT22;30019;50.576;8.568;2023-03-13T05:13:41;9.00;99.90
44305;DHT22;30019;50.576;8.568;2023-03-13T05:16:07;9.00;99.90
44305;DHT22;30019;50.576;8.568;2023-03-13T05:18:33;9.00;99.90
44305;DHT22;30019;50.576;8.568;2023-03-13T05:20:58;9.20;99.90
44305;DHT22;30019;50.576;8.568;2023-03-13T05:23:24;9.40;99.90
44305;DHT22;30019;50.576;8.568;2023-03-13T05:25:50;9.40;99.90
44305;DHT22;30019;50.576;8.568;2023-03-13T05:28:15;9.40;99.90
44305;DHT22;30019;50.576;8.568;2023-03-13T05:30:41;9.40;99.90
44305;DHT22;30019;50.576;8.568;2023-03-13T05:33:06;9.40;99.90
44305;DHT22;30019;50.576;8.568;2023-03-13T05:35:32;9.50;99.90
44305;DHT22;30019;50.576;8.568;2023-03-13T05:37:57;9.60;99.90
44305;DHT22;30019;50.576;8.568;2023-03-13T05:40:23;9.60;99.90
44305;DHT22;30019;50.576;8.568;2023-03-13T05:42:49;9.60;99.90
44305;DHT22;30019;50.576;8.568;2023-03-13T05:45:14;9.70;99.90
44305;DHT22;30019;50.576;8.568;2023-03-13T05:47:40;9.70;99.90
44305;DHT22;30019;50.576;8.568;2023-03-13T05:50:07;9.70;99.90
44305;DHT22;30019;50.576;8.568;2023-03-13T05:52:33;9.70;99.90
44305;DHT22;30019;50.576;8.568;2023-03-13T05:54:59;9.60;99.90
44305;DHT22;30019;50.576;8.568;2023-03-13T05:57:24;9.60;99.90
44305;DHT22;30019;50.576;8.568;2023-03-13T05:59:50;9.70;99.90
44305;DHT22;30019;50.576;8.568;2023-03-13T06:02:16;9.70;99.90
44305;DHT22;30019;50.576;8.568;2023-03-13T06:04:41;9.70;99.90
44305;DHT22;30019;50.576;8.568;2023-03-13T06:07:07;9.70;99.90
44305;DHT22;30019;50.576;8.568;2023-03-13T06:09:32;9.80;99.90
44305;DHT22;30019;50.576;8.568;2023-03-13T06:11:58;9.80;99.90
44305;DHT22;30019;50.576;8.568;2023-03-13T06:14:24;9.90;99.90
44305;DHT22;30019;50.576;8.568;2023-03-13T06:16:49;9.90;99.90
44305;DHT22;30019;50.576;8.568;2023-03-13T06:19:15;9.90;99.90
44305;DHT22;30019;50.576;8.568;2023-03-13T06:21:41;9.90;99.90
44305;DHT22;30019;50.576;8.568;2023-03-13T06:24:07;9.90;99.90
44305;DHT22;30019;50.576;8.568;2023-03-13T06:26:32;10.00;99.90
44305;DHT22;30019;50.576;8.568;2023-03-13T06:28:58;10.00;99.90
44305;DHT22;30019;50.576;8.568;2023-03-13T06:31:23;10.10;99.90
44305;DHT22;30019;50.576;8.568;2023-03-13T06:33:53;10.20;99.90
44305;DHT22;30019;50.576;8.568;2023-03-13T06:36:19;10.30;99.90
44305;DHT22;30019;50.576;8.568;2023-03-13T06:38:45;10.20;99.90
44305;DHT22;30019;50.576;8.568;2023-03-13T06:41:11;10.20;99.90
44305;DHT22;30019;50.576;8.568;2023-03-13T06:43:37;10.20;99.90
44305;DHT22;30019;50.576;8.568;2023-03-13T06:46:05;10.20;99.90
44305;DHT22;30019;50.576;8.568;2023-03-13T06:48:31;10.10;99.90
44305;DHT22;30019;50.576;8.568;2023-03-13T06:50:56;10.00;99.90
44305;DHT22;30019;50.576;8.568;2023-03-13T06:53:22;9.90;99.90
44305;DHT22;30019;50.576;8.568;2023-03-13T06:55:47;9.90;99.90
44305;DHT22;30019;50.576;8.568;2023-03-13T06:58:14;10.00;99.90
44305;DHT22;30019;50.576;8.568;2023-03-13T07:00:40;10.20;99.90
44305;DHT22;30019;50.576;8.568;2023-03-13T07:03:06;10.40;99.90
44305;DHT22;30019;50.576;8.568;2023-03-13T07:05:32;10.40;99.90
44305;DHT22;30019;50.576;8.568;2023-03-13T07:07:58;10.50;99.90
44305;DHT22;30019;50.576;8.568;2023-03-13T07:10:24;10.70;99.90
44305;DHT22;30019;50.576;8.568;2023-03-13T07:12:49;10.70;99.90
44305;DHT22;30019;50.576;8.568;2023-03-13T07:15:15;10.80;99.90
44305;DHT22;30019;50.576;8.568;2023-03-13T07:17:41;10.80;99.90
44305;DHT22;30019;50.576;8.568;2023-03-13T07:20:06;10.90;99.90
44305;DHT22;30019;50.576;8.568;2023-03-13T07:22:35;10.90;99.90
44305;DHT22;30019;50.576;8.568;2023-03-13T07:25:01;10.90;99.90
44305;DHT22;30019;50.576;8.568;2023-03-13T07:27:26;10.90;99.90
44305;DHT22;30019;50.576;8.568;2023-03-13T07:29:52;10.90;99.90
44305;DHT22;30019;50.576;8.568;2023-03-13T07:32:17;11.00;99.90
44305;DHT22;30019;50.576;8.568;2023-03-13T07:34:43;11.10;99.90
44305;DHT22;30019;50.576;8.568;2023-03-13T07:37:13;11.10;99.90
44305;DHT22;30019;50.576;8.568;2023-03-13T07:39:38;11.30;99.90
44305;DHT22;30019;50.576;8.568;2023-03-13T07:42:04;11.40;99.90
44305;DHT22;30019;50.576;8.568;2023-03-13T07:44:30;11.40;99.90
44305;DHT22;30019;50.576;8.568;2023-03-13T07:46:59;11.40;99.90
44305;DHT22;30019;50.576;8.568;2023-03-13T07:49:25;11.60;99.90
44305;DHT22;30019;50.576;8.568;2023-03-13T07:51:50;11.70;99.90
44305;DHT22;30019;50.576;8.568;2023-03-13T07:54:16;11.70;99.90
44305;DHT22;30019;50.576;8.568;2023-03-13T07:56:41;11.80;99.90
44305;DHT22;30019;50.576;8.568;2023-03-13T07:59:07;11.90;99.90
44305;DHT22;30019;50.576;8.568;2023-03-13T08:01:33;12.00;99.90
44305;DHT22;30019;50.576;8.568;2023-03-13T08:03:58;11.90;99.90
44305;DHT22;30019;50.576;8.568;2023-03-13T08:06:33;11.90;99.90
44305;DHT22;30019;50.576;8.568;2023-03-13T08:09:03;12.00;99.90
44305;DHT22;30019;50.576;8.568;2023-03-13T08:11:29;11.90;99.90
44305;DHT22;30019;50.576;8.568;2023-03-13T08:13:56;11.90;99.90
44305;DHT22;30019;50.576;8.568;2023-03-13T08:18:54;12.00;99.90
44305;DHT22;30019;50.576;8.568;2023-03-13T08:21:38;12.10;99.90
44305;DHT22;30019;50.576;8.568;2023-03-13T08:24:05;12.10;99.90
44305;DHT22;30019;50.576;8.568;2023-03-13T08:26:33;12.20;99.90
44305;DHT22;30019;50.576;8.568;2023-03-13T08:29:00;12.10;99.90
44305;DHT22;30019;50.576;8.568;2023-03-13T08:31:29;12.20;99.90
44305;DHT22;30019;50.576;8.568;2023-03-13T08:33:55;12.20;99.90
44305;DHT22;30019;50.576;8.568;2023-03-13T08:36:43;12.20;99.90
44305;DHT22;30019;50.576;8.568;2023-03-13T08:39:15;12.30;99.90
44305;DHT22;30019;50.576;8.568;2023-03-13T08:41:41;12.30;99.90
44305;DHT22;30019;50.576;8.568;2023-03-13T08:44:10;12.20;99.90
44305;DHT22;30019;50.576;8.568;2023-03-13T08:46:36;12.20;99.90
44305;DHT22;30019;50.576;8.568;2023-03-13T08:49:04;12.10;99.90
44305;DHT22;30019;50.576;8.568;2023-03-13T08:51:30;12.20;99.90
44305;DHT22;30019;50.576;8.568;2023-03-13T08:53:55;12.30;99.90
44305;DHT22;30019;50.576;8.568;2023-03-13T08:56:24;12.40;99.90
44305;DHT22;30019;50.576;8.568;2023-03-13T08:58:51;12.50;99.90
44305;DHT22;30019;50.576;8.568;2023-03-13T09:01:17;12.60;99.90
44305;DHT22;30019;50.576;8.568;2023-03-13T09:03:43;12.80;99.90
44305;DHT22;30019;50.576;8.568;2023-03-13T09:06:10;13.00;99.90
44305;DHT22;30019;50.576;8.568;2023-03-13T09:08:36;13.00;99.90
44305;DHT22;30019;50.576;8.568;2023-03-13T09:11:08;13.00;99.90
44305;DHT22;30019;50.576;8.568;2023-03-13T09:13:36;13.00;99.90
44305;DHT22;30019;50.576;8.568;2023-03-13T09:16:07;13.00;99.90
44305;DHT22;30019;50.576;8.568;2023-03-13T09:18:33;13.00;99.90
44305;DHT22;30019;50.576;8.568;2023-03-13T09:20:59;13.10;99.90
44305;DHT22;30019;50.576;8.568;2023-03-13T09:23:25;13.00;99.90
44305;DHT22;30019;50.576;8.568;2023-03-13T09:26:00;13.00;99.90
44305;DHT22;30019;50.576;8.568;2023-03-13T09:28:29;13.00;99.90
44305;DHT22;30019;50.576;8.568;2023-03-13T09:30:54;13.00;99.90
44305;DHT22;30019;50.576;8.568;2023-03-13T09:33:21;13.00;99.90
44305;DHT22;30019;50.576;8.568;2023-03-13T09:35:50;13.00;99.90
44305;DHT22;30019;50.576;8.568;2023-03-13T09:38:17;13.00;99.90
44305;DHT22;30019;50.576;8.568;2023-03-13T09:40:48;13.10;99.90
44305;DHT22;30019;50.576;8.568;2023-03-13T09:43:31;13.10;99.90
44305;DHT22;30019;50.576;8.568;2023-03-13T09:46:02;13.20;99.90
44305;DHT22;30019;50.576;8.568;2023-03-13T09:48:44;13.30;99.90
44305;DHT22;30019;50.576;8.568;2023-03-13T09:51:18;13.40;99.90
44305;DHT22;30019;50.576;8.568;2023-03-13T09:54:06;13.40;99.90
44305;DHT22;30019;50.576;8.568;2023-03-13T09:57:02;13.50;99.90
44305;DHT22;30019;50.576;8.568;2023-03-13T10:02:22;13.60;99.90
44305;DHT22;30019;50.576;8.568;2023-03-13T10:04:55;13.60;99.90
44305;DHT22;30019;50.576;8.568;2023-03-13T10:07:22;13.60;99.90
44305;DHT22;30019;50.576;8.568;2023-03-13T10:09:47;13.60;99.90
44305;DHT22;30019;50.576;8.568;2023-03-13T10:12:27;13.60;99.90
44305;DHT22;30019;50.576;8.568;2023-03-13T10:15:02;13.80;99.90
44305;DHT22;30019;50.576;8.568;2023-03-13T10:17:37;14.00;99.90
44305;DHT22;30019;50.576;8.568;2023-03-13T10:22:36;14.20;99.90
44305;DHT22;30019;50.576;8.568;2023-03-13T10:25:29;14.10;99.90
44305;DHT22;30019;50.576;8.568;2023-03-13T10:27:53;14.00;99.90
44305;DHT22;30019;50.576;8.568;2023-03-13T10:30:28;14.10;99.90
44305;DHT22;30019;50.576;8.568;2023-03-13T10:33:19;14.10;99.90
44305;DHT22;30019;50.576;8.568;2023-03-13T10:35:46;14.40;99.90
44305;DHT22;30019;50.576;8.568;2023-03-13T10:38:23;14.60;99.90
44305;DHT22;30019;50.576;8.568;2023-03-13T10:41:03;14.90;99.90
44305;DHT22;30019;50.576;8.568;2023-03-13T10:43:30;15.00;99.90
44305;DHT22;30019;50.576;8.568;2023-03-13T10:45:57;14.80;99.90
44305;DHT22;30019;50.576;8.568;2023-03-13T10:48:25;14.70;99.90
44305;DHT22;30019;50.576;8.568;2023-03-13T10:50:55;14.50;99.90
44305;DHT22;30019;50.576;8.568;2023-03-13T10:53:32;14.50;99.90
44305;DHT22;30019;50.576;8.568;2023-03-13T10:56:12;14.70;99.90
44305;DHT22;30019;50.576;8.568;2023-03-13T10:58:44;14.60;99.90
44305;DHT22;30019;50.576;8.568;2023-03-13T11:01:20;14.50;99.90
44305;DHT22;30019;50.576;8.568;2023-03-13T11:03:47;14.30;99.90
44305;DHT22;30019;50.576;8.568;2023-03-13T11:06:29;14.20;99.90
44305;DHT22;30019;50.576;8.568;2023-03-13T11:11:30;14.30;99.90
44305;DHT22;30019;50.576;8.568;2023-03-13T11:14:11;14.40;99.90
44305;DHT22;30019;50.576;8.568;2023-03-13T11:16:55;14.70;99.90
44305;DHT22;30019;50.576;8.568;2023-03-13T11:19:33;14.60;99.90
44305;DHT22;30019;50.576;8.568;2023-03-13T11:25:07;14.40;99.90
44305;DHT22;30019;50.576;8.568;2023-03-13T11:32:55;14.00;99.90
44305;DHT22;30019;50.576;8.568;2023-03-13T11:38:00;13.80;99.90
44305;DHT22;30019;50.576;8.568;2023-03-13T11:40:47;13.80;99.90
44305;DHT22;30019;50.576;8.568;2023-03-13T11:43:41;13.60;99.90
44305;DHT22;30019;50.576;8.568;2023-03-13T11:57:06;13.50;99.90
44305;DHT22;30019;50.576;8.568;2023-03-13T11:59:51;13.40;99.90
44305;DHT22;30019;50.576;8.568;2023-03-13T12:02:34;13.40;99.90
44305;DHT22;30019;50.576;8.568;2023-03-13T12:05:10;13.50;99.90
44305;DHT22;30019;50.576;8.568;2023-03-13T12:07:43;13.40;99.90
44305;DHT22;30019;50.576;8.568;2023-03-13T12:10:15;13.50;99.90
44305;DHT22;30019;50.576;8.568;2023-03-13T12:12:48;13.60;99.90
44305;DHT22;30019;50.576;8.568;2023-03-13T12:15:26;13.50;99.90
44305;DHT22;30019;50.576;8.568;2023-03-13T12:23:41;13.60;99.90
44305;DHT22;30019;50.576;8.568;2023-03-13T12:26:18;13.60;99.90
44305;DHT22;30019;50.576;8.568;2023-03-13T12:31:50;13.70;99.90
44305;DHT22;30019;50.576;8.568;2023-03-13T12:34:23;13.70;99.90
44305;DHT22;30019;50.576;8.568;2023-03-13T12:39:51;13.80;99.90
44305;DHT22;30019;50.576;8.568;2023-03-13T12:42:35;13.90;99.90
44305;DHT22;30019;50.576;8.568;2023-03-13T12:45:06;13.80;99.90
44305;DHT22;30019;50.576;8.568;2023-03-13T12:48:36;13.90;99.90
44305;DHT22;30019;50.576;8.568;2023-03-13T12:59:17;14.00;99.90
44305;DHT22;30019;50.576;8.568;2023-03-13T13:01:47;13.90;99.90
44305;DHT22;30019;50.576;8.568;2023-03-13T13:04:23;13.70;99.90
44305;DHT22;30019;50.576;8.568;2023-03-13T13:07:02;13.60;99.90
44305;DHT22;30019;50.576;8.568;2023-03-13T13:09:57;13.60;99.90
44305;DHT22;30019;50.576;8.568;2023-03-13T13:12:20;13.70;99.90
44305;DHT22;30019;50.576;8.568;2023-03-13T13:17:14;14.20;99.90
44305;DHT22;30019;50.576;8.568;2023-03-13T13:30:03;13.90;99.90
44305;DHT22;30019;50.576;8.568;2023-03-13T13:35:21;13.50;99.90
44305;DHT22;30019;50.576;8.568;2023-03-13T13:37:48;13.40;99.90
44305;DHT22;30019;50.576;8.568;2023-03-13T13:40:25;13.30;99.90
44305;DHT22;30019;50.576;8.568;2023-03-13T13:42:56;13.40;99.90
44305;DHT22;30019;50.576;8.568;2023-03-13T13:45:31;13.40;99.90
44305;DHT22;30019;50.576;8.568;2023-03-13T13:53:59;13.80;99.90
44305;DHT22;30019;50.576;8.568;2023-03-13T14:02:11;14.20;99.90
44305;DHT22;30019;50.576;8.568;2023-03-13T14:04:41;14.20;99.90
44305;DHT22;30019;50.576;8.568;2023-03-13T14:07:19;14.20;99.90
44305;DHT22;30019;50.576;8.568;2023-03-13T14:17:50;14.70;99.90
44305;DHT22;30019;50.576;8.568;2023-03-13T14:20:19;14.60;99.90
44305;DHT22;30019;50.576;8.568;2023-03-13T14:22:47;14.50;99.90
44305;DHT22;30019;50.576;8.568;2023-03-13T14:25:13;14.50;99.90
44305;DHT22;30019;50.576;8.568;2023-03-13T14:27:43;14.40;99.90
44305;DHT22;30019;50.576;8.568;2023-03-13T14:30:10;14.40;99.90
44305;DHT22;30019;50.576;8.568;2023-03-13T14:32:37;14.40;99.90
44305;DHT22;30019;50.576;8.568;2023-03-13T14:35:04;14.30;99.90
44305;DHT22;30019;50.576;8.568;2023-03-13T14:37:44;14.30;99.90
44305;DHT22;30019;50.576;8.568;2023-03-13T14:40:28;14.30;99.90
44305;DHT22;30019;50.576;8.568;2023-03-13T14:42:59;14.20;99.90
44305;DHT22;30019;50.576;8.568;2023-03-13T14:45:33;14.20;99.90
44305;DHT22;30019;50.576;8.568;2023-03-13T14:48:03;14.00;99.90
44305;DHT22;30019;50.576;8.568;2023-03-13T14:50:29;13.80;99.90
44305;DHT22;30019;50.576;8.568;2023-03-13T14:53:00;13.50;99.90
44305;DHT22;30019;50.576;8.568;2023-03-13T14:55:32;13.40;99.90
44305;DHT22;30019;50.576;8.568;2023-03-13T14:58:03;13.40;99.90
44305;DHT22;30019;50.576;8.568;2023-03-13T15:00:39;13.40;99.90
44305;DHT22;30019;50.576;8.568;2023-03-13T15:08:42;13.80;99.90
44305;DHT22;30019;50.576;8.568;2023-03-13T15:11:31;13.80;99.90
44305;DHT22;30019;50.576;8.568;2023-03-13T15:13:58;13.90;99.90
44305;DHT22;30019;50.576;8.568;2023-03-13T15:16:24;13.90;99.90
44305;DHT22;30019;50.576;8.568;2023-03-13T15:18:51;13.90;99.90
44305;DHT22;30019;50.576;8.568;2023-03-13T15:21:25;13.90;99.90
44305;DHT22;30019;50.576;8.568;2023-03-13T15:24:12;13.90;99.90
44305;DHT22;30019;50.576;8.568;2023-03-13T15:26:39;13.90;99.90
44305;DHT22;30019;50.576;8.568;2023-03-13T15:29:04;13.60;99.90
44305;DHT22;30019;50.576;8.568;2023-03-13T15:31:31;13.50;99.90
44305;DHT22;30019;50.576;8.568;2023-03-13T15:33:58;13.40;99.90
44305;DHT22;30019;50.576;8.568;2023-03-13T15:36:25;13.30;99.90
44305;DHT22;30019;50.576;8.568;2023-03-13T15:38:51;13.20;99.90
44305;DHT22;30019;50.576;8.568;2023-03-13T15:41:18;13.10;99.90
44305;DHT22;30019;50.576;8.568;2023-03-13T15:43:44;13.00;99.90
44305;DHT22;30019;50.576;8.568;2023-03-13T15:46:12;13.00;99.90
44305;DHT22;30019;50.576;8.568;2023-03-13T15:48:41;12.90;99.90
44305;DHT22;30019;50.576;8.568;2023-03-13T15:51:12;12.90;99.90
44305;DHT22;30019;50.576;8.568;2023-03-13T15:53:39;12.80;99.90
44305;DHT22;30019;50.576;8.568;2023-03-13T15:56:13;12.70;99.90
44305;DHT22;30019;50.576;8.568;2023-03-13T15:58:39;12.70;99.90
44305;DHT22;30019;50.576;8.568;2023-03-13T16:01:05;12.70;99.90
44305;DHT22;30019;50.576;8.568;2023-03-13T16:03:30;12.60;99.90
44305;DHT22;30019;50.576;8.568;2023-03-13T16:05:56;12.60;99.90
44305;DHT22;30019;50.576;8.568;2023-03-13T16:08:24;12.60;99.90
44305;DHT22;30019;50.576;8.568;2023-03-13T16:10:50;12.60;99.90
44305;DHT22;30019;50.576;8.568;2023-03-13T16:13:16;12.80;99.90
44305;DHT22;30019;50.576;8.568;2023-03-13T16:15:43;12.80;99.90
44305;DHT22;30019;50.576;8.568;2023-03-13T16:18:17;12.80;99.90
44305;DHT22;30019;50.576;8.568;2023-03-13T16:20:44;12.80;99.90
44305;DHT22;30019;50.576;8.568;2023-03-13T16:23:09;12.80;99.90
44305;DHT22;30019;50.576;8.568;2023-03-13T16:25:35;12.80;99.90
44305;DHT22;30019;50.576;8.568;2023-03-13T16:28:01;12.80;99.90
44305;DHT22;30019;50.576;8.568;2023-03-13T16:30:30;12.80;99.90
44305;DHT22;30019;50.576;8.568;2023-03-13T16:32:56;12.80;99.90
44305;DHT22;30019;50.576;8.568;2023-03-13T16:35:23;13.00;99.90
44305;DHT22;30019;50.576;8.568;2023-03-13T16:37:51;13.20;99.90
44305;DHT22;30019;50.576;8.568;2023-03-13T16:40:22;13.20;99.90
44305;DHT22;30019;50.576;8.568;2023-03-13T16:42:48;13.30;99.90
44305;DHT22;30019;50.576;8.568;2023-03-13T16:45:14;13.50;99.90
44305;DHT22;30019;50.576;8.568;2023-03-13T16:47:40;13.50;99.90
44305;DHT22;30019;50.576;8.568;2023-03-13T16:52:55;13.70;99.90
44305;DHT22;30019;50.576;8.568;2023-03-13T16:55:22;13.70;99.90
44305;DHT22;30019;50.576;8.568;2023-03-13T16:58:01;13.70;99.90
44305;DHT22;30019;50.576;8.568;2023-03-13T17:00:28;13.80;99.90
44305;DHT22;30019;50.576;8.568;2023-03-13T17:02:56;13.90;99.90
44305;DHT22;30019;50.576;8.568;2023-03-13T17:05:23;13.90;99.90
44305;DHT22;30019;50.576;8.568;2023-03-13T17:07:50;13.90;99.90
44305;DHT22;30019;50.576;8.568;2023-03-13T17:12:43;14.00;99.90
44305;DHT22;30019;50.576;8.568;2023-03-13T17:15:09;13.90;99.90
44305;DHT22;30019;50.576;8.568;2023-03-13T17:17:35;13.70;99.90
44305;DHT22;30019;50.576;8.568;2023-03-13T17:20:01;13.70;99.90
44305;DHT22;30019;50.576;8.568;2023-03-13T17:22:29;13.60;99.90
44305;DHT22;30019;50.576;8.568;2023-03-13T17:24:54;13.70;99.90
44305;DHT22;30019;50.576;8.568;2023-03-13T17:27:20;13.60;99.90
44305;DHT22;30019;50.576;8.568;2023-03-13T17:29:45;13.70;99.90
44305;DHT22;30019;50.576;8.568;2023-03-13T17:32:12;13.80;99.90
44305;DHT22;30019;50.576;8.568;2023-03-13T17:34:39;13.70;99.90